createdAt,value
2022-12-04T00:03:21.747Z,11.24
2022-12-04T00:08:20.949Z,10.53
2022-12-04T00:13:20.182Z,10.70
2022-12-04T00:18:18.499Z,10.68
2022-12-04T00:23:19.694Z,11.04
2022-12-04T00:28:18.901Z,10.76
2022-12-04T00:33:16.114Z,11.09
2022-12-04T00:38:17.341Z,10.96
2022-12-04T00:43:15.620Z,10.99
2022-12-04T00:48:14.853Z,11.72
2022-12-04T00:53:14.129Z,11.24
2022-12-04T00:58:12.681Z,11.42
2022-12-04T01:03:11.643Z,11.86
2022-12-04T01:08:13.776Z,11.28
2022-12-04T01:13:11.048Z,11.19
2022-12-04T01:18:10.335Z,10.89
2022-12-04T01:23:09.525Z,10.76
2022-12-04T01:28:08.793Z,10.41
2022-12-04T01:33:07.997Z,22.20
2022-12-04T01:38:09.303Z,27.81
2022-12-04T01:43:06.608Z,27.54
2022-12-04T01:48:06.894Z,26.29
2022-12-04T01:53:06.194Z,25.65
2022-12-04T01:58:05.470Z,25.13
2022-12-04T02:03:03.805Z,25.21
2022-12-04T02:08:02.951Z,24.13
2022-12-04T02:13:03.218Z,23.15
2022-12-04T02:18:01.507Z,22.42
2022-12-04T02:23:00.795Z,21.74
2022-12-04T02:28:01.102Z,21.21
2022-12-04T02:33:00.417Z,20.59
2022-12-04T02:37:58.567Z,20.32
2022-12-04T02:42:57.707Z,19.98
2022-12-04T02:47:57.038Z,19.40
2022-12-04T02:52:58.361Z,19.02
2022-12-04T02:57:56.675Z,18.78
2022-12-04T03:02:55.066Z,18.50
2022-12-04T03:07:54.279Z,18.23
2022-12-04T03:12:53.414Z,18.10
2022-12-04T03:17:52.735Z,17.86
2022-12-04T03:22:53.042Z,17.74
2022-12-04T03:27:51.365Z,17.34
2022-12-04T03:32:51.714Z,17.11
2022-12-04T03:37:50.834Z,16.94
2022-12-04T03:42:50.166Z,16.82
2022-12-04T03:47:48.303Z,16.70
2022-12-04T03:52:46.602Z,16.46
2022-12-04T03:57:47.931Z,16.34
2022-12-04T04:02:47.259Z,16.98
2022-12-04T04:07:45.402Z,17.75
2022-12-04T04:12:44.680Z,17.74
2022-12-04T04:17:43.983Z,18.20
2022-12-04T04:22:43.295Z,18.45
2022-12-04T04:27:42.600Z,18.23
2022-12-04T04:32:42.891Z,18.08
2022-12-04T04:37:41.203Z,17.95
2022-12-04T04:42:40.528Z,17.93
2022-12-04T04:47:39.837Z,17.86
2022-12-04T04:52:40.154Z,17.75
2022-12-04T04:57:38.463Z,17.52
2022-12-04T05:02:38.813Z,17.31
2022-12-04T05:07:36.975Z,17.14
2022-12-04T05:12:37.073Z,16.86
2022-12-04T05:17:36.355Z,16.64
2022-12-04T05:22:34.656Z,16.15
2022-12-04T05:27:33.923Z,16.31
2022-12-04T05:32:34.202Z,17.06
2022-12-04T05:37:32.520Z,19.50
2022-12-04T05:42:31.810Z,19.44
2022-12-04T05:47:31.100Z,19.02
2022-12-04T05:52:31.413Z,18.95
2022-12-04T05:57:30.145Z,18.99
2022-12-04T06:02:29.013Z,18.80
2022-12-04T06:07:27.222Z,18.62
2022-12-04T06:12:27.331Z,18.32
2022-12-04T06:17:26.660Z,17.97
2022-12-04T06:22:26.970Z,17.79
2022-12-04T06:27:28.023Z,17.54
2022-12-04T06:32:25.478Z,17.18
2022-12-04T06:37:22.796Z,17.08
2022-12-04T06:42:24.105Z,16.88
2022-12-04T06:47:23.389Z,16.68
2022-12-04T06:52:21.670Z,16.45
2022-12-04T06:57:20.978Z,16.35
2022-12-04T07:02:21.426Z,17.82
2022-12-04T07:07:19.544Z,21.90
2022-12-04T07:12:19.671Z,23.39
2022-12-04T07:17:19.045Z,22.70
2022-12-04T07:22:18.145Z,22.00
2022-12-04T07:27:17.445Z,21.38
2022-12-04T07:32:16.820Z,20.52
2022-12-04T07:37:14.932Z,19.76
2022-12-04T07:42:13.242Z,19.23
2022-12-04T07:47:13.553Z,18.72
2022-12-04T07:52:12.861Z,18.42
2022-12-04T07:57:12.138Z,18.18
2022-12-04T08:02:12.453Z,17.95
2022-12-04T08:07:10.760Z,17.52
2022-12-04T08:12:10.063Z,17.15
2022-12-04T08:17:10.430Z,16.93
2022-12-04T08:22:09.567Z,16.66
2022-12-04T08:27:08.869Z,16.49
2022-12-04T08:32:08.167Z,16.30
2022-12-04T08:37:06.474Z,16.05
2022-12-04T08:42:05.353Z,16.53
2022-12-04T08:47:06.856Z,16.75
2022-12-04T08:52:04.173Z,17.08
2022-12-04T08:57:20.512Z,21.79
2022-12-04T09:02:04.720Z,25.47
2022-12-04T09:07:03.278Z,26.45
2022-12-04T09:12:01.077Z,27.59
2022-12-04T09:17:01.684Z,28.56
2022-12-04T09:22:00.955Z,28.48
2022-12-04T09:26:58.973Z,28.48
2022-12-04T09:32:00.352Z,28.54
2022-12-04T09:36:59.637Z,27.97
2022-12-04T09:41:57.891Z,28.96
2022-12-04T09:46:57.170Z,29.05
2022-12-04T09:51:56.222Z,29.36
2022-12-04T09:56:54.427Z,28.61
2022-12-04T10:01:53.676Z,27.24
2022-12-04T10:06:53.940Z,24.87
2022-12-04T10:11:52.840Z,24.96
2022-12-04T10:16:52.329Z,25.03
2022-12-04T10:21:50.766Z,25.06
2022-12-04T10:26:49.747Z,23.39
2022-12-04T10:31:48.884Z,23.70
2022-12-04T10:36:49.021Z,22.40
2022-12-04T10:41:49.578Z,24.02
2022-12-04T10:46:46.989Z,26.50
2022-12-04T10:51:45.743Z,25.73
2022-12-04T10:56:46.030Z,28.96
2022-12-04T11:01:45.369Z,29.23
2022-12-04T11:06:43.522Z,30.08
2022-12-04T11:11:44.855Z,30.32
2022-12-04T11:16:42.228Z,30.75
2022-12-04T11:21:42.424Z,30.67
2022-12-04T11:26:40.883Z,29.70
2022-12-04T11:31:40.269Z,29.37
2022-12-04T11:36:42.097Z,30.04
2022-12-04T11:41:40.745Z,30.45
2022-12-04T11:46:38.123Z,30.42
2022-12-04T11:51:37.286Z,28.92
2022-12-04T11:56:36.112Z,29.49
2022-12-04T12:01:35.339Z,31.17
2022-12-04T12:06:35.766Z,30.42
2022-12-04T12:11:33.737Z,30.29
2022-12-04T12:16:33.986Z,30.53
2022-12-04T12:21:33.484Z,30.13
2022-12-04T12:26:31.608Z,30.16
2022-12-04T12:31:31.870Z,30.69
2022-12-04T12:36:30.098Z,31.07
2022-12-04T12:41:29.628Z,31.28
2022-12-04T12:46:34.831Z,31.01
2022-12-04T12:51:30.487Z,31.09
2022-12-04T12:56:26.908Z,31.10
2022-12-04T13:01:26.147Z,31.48
2022-12-04T13:06:28.331Z,31.54
2022-12-04T13:11:24.490Z,32.07
2022-12-04T13:16:24.777Z,32.13
2022-12-04T13:21:24.950Z,31.86
2022-12-04T13:26:23.113Z,31.28
2022-12-04T13:31:21.313Z,30.89
2022-12-04T13:36:20.513Z,30.42
2022-12-04T13:41:19.680Z,28.61
2022-12-04T13:46:19.911Z,27.39
2022-12-04T13:51:18.146Z,26.88
2022-12-04T13:56:18.295Z,27.85
2022-12-04T14:01:16.690Z,29.02
2022-12-04T14:06:15.968Z,27.21
2022-12-04T14:11:16.860Z,27.66
2022-12-04T14:16:14.535Z,27.28
2022-12-04T14:21:13.909Z,26.58
2022-12-04T14:26:13.905Z,25.14
2022-12-04T14:31:12.473Z,25.06
2022-12-04T14:36:11.362Z,26.28
2022-12-04T14:41:10.697Z,28.09
2022-12-04T14:46:11.015Z,26.63
2022-12-04T14:51:07.932Z,25.54
2022-12-04T14:56:09.043Z,23.54
2022-12-04T15:01:07.627Z,24.25
2022-12-04T15:06:10.656Z,24.45
2022-12-04T15:11:07.050Z,23.00
2022-12-04T15:16:15.641Z,22.88
2022-12-04T15:21:04.440Z,22.54
2022-12-04T15:26:06.635Z,21.79
2022-12-04T15:31:03.797Z,21.67
2022-12-04T15:36:06.220Z,21.56
2022-12-04T15:41:03.614Z,21.50
2022-12-04T15:46:00.406Z,21.75
2022-12-04T15:50:58.655Z,21.53
2022-12-04T15:55:59.567Z,22.45
2022-12-04T16:00:58.109Z,22.52
2022-12-04T16:05:57.315Z,22.62
2022-12-04T16:10:56.237Z,22.05
2022-12-04T16:15:55.868Z,16.68
2022-12-04T16:20:56.836Z,16.23
2022-12-04T16:25:54.404Z,16.67
2022-12-04T16:30:52.674Z,16.23
2022-12-04T16:35:52.893Z,16.38
2022-12-04T16:40:52.090Z,15.43
2022-12-04T16:45:53.051Z,14.80
2022-12-04T16:50:52.555Z,16.28
2022-12-04T16:55:50.787Z,15.97
2022-12-04T17:00:49.015Z,16.42
2022-12-04T17:05:48.901Z,16.48
2022-12-04T17:10:47.494Z,15.97
2022-12-04T17:15:47.496Z,15.82
2022-12-04T17:20:46.924Z,16.25
2022-12-04T17:25:45.136Z,15.50
2022-12-04T17:30:44.323Z,14.39
2022-12-04T17:35:47.326Z,14.91
2022-12-04T17:40:43.717Z,15.83
2022-12-04T17:45:41.854Z,15.32
2022-12-04T17:50:41.886Z,14.96
2022-12-04T17:55:41.179Z,15.72
2022-12-04T18:00:39.081Z,14.20
2022-12-04T18:05:39.266Z,15.31
2022-12-04T18:10:37.720Z,15.44
2022-12-04T18:15:37.134Z,23.13
2022-12-04T18:20:37.264Z,25.10
2022-12-04T18:25:37.593Z,22.31
2022-12-04T18:30:36.740Z,22.17
2022-12-04T18:35:33.590Z,21.82
2022-12-04T18:40:33.116Z,20.54
2022-12-04T18:45:33.333Z,20.16
2022-12-04T18:50:31.575Z,22.83
2022-12-04T18:55:31.526Z,21.32
2022-12-04T19:00:29.982Z,21.07
2022-12-04T19:05:31.291Z,21.49
2022-12-04T19:10:28.717Z,21.44
2022-12-04T19:15:27.879Z,21.12
2022-12-04T19:20:28.124Z,21.29
2022-12-04T19:25:26.348Z,21.07
2022-12-04T19:30:25.447Z,20.38
2022-12-04T19:35:26.399Z,20.62
2022-12-04T19:40:24.069Z,22.00
2022-12-04T19:45:24.077Z,19.18
2022-12-04T19:50:22.517Z,18.60
2022-12-04T19:55:21.691Z,17.99
2022-12-04T20:00:21.473Z,18.05
2022-12-04T20:05:20.224Z,18.12
2022-12-04T20:10:23.979Z,19.28
2022-12-04T20:15:20.316Z,18.07
2022-12-04T20:20:22.007Z,17.51
2022-12-04T20:25:16.743Z,17.34
2022-12-04T20:30:16.413Z,17.12
2022-12-04T20:35:15.495Z,17.04
2022-12-04T20:40:15.713Z,16.97
2022-12-04T20:45:14.688Z,17.16
2022-12-04T20:50:14.161Z,17.28
2022-12-04T20:55:12.335Z,17.64
2022-12-04T21:00:12.447Z,18.23
2022-12-04T21:05:11.511Z,17.07
2022-12-04T21:10:10.043Z,17.00
2022-12-04T21:15:09.845Z,17.25
2022-12-04T21:20:08.008Z,16.79
2022-12-04T21:25:07.368Z,17.11
2022-12-04T21:30:06.587Z,17.06
2022-12-04T21:35:06.761Z,17.12
2022-12-04T21:40:05.952Z,17.06
2022-12-04T21:45:04.208Z,17.12
2022-12-04T21:50:03.462Z,17.21
2022-12-04T21:55:02.638Z,17.43
2022-12-04T22:00:01.845Z,18.11
2022-12-04T22:05:02.030Z,18.10
2022-12-04T22:10:04.136Z,17.90
2022-12-04T22:15:00.564Z,18.14
2022-12-04T22:19:59.807Z,19.02
2022-12-04T22:25:00.372Z,18.85
2022-12-04T22:29:57.310Z,18.50
2022-12-04T22:34:56.492Z,18.12
2022-12-04T22:39:55.997Z,17.48
2022-12-04T22:44:55.085Z,17.34
2022-12-04T22:49:54.550Z,17.16
2022-12-04T22:54:53.631Z,16.66
2022-12-04T22:59:52.647Z,16.02
2022-12-04T23:04:51.909Z,16.24
2022-12-04T23:09:52.133Z,16.43
2022-12-04T23:14:50.309Z,15.93
2022-12-04T23:19:49.513Z,15.65
2022-12-04T23:24:49.681Z,15.89
2022-12-04T23:29:54.958Z,15.80
2022-12-04T23:34:48.117Z,17.00
2022-12-04T23:39:46.325Z,16.82
2022-12-04T23:44:44.503Z,17.07
2022-12-04T23:49:44.707Z,16.48
2022-12-04T23:54:44.894Z,16.76
2022-12-04T23:59:43.113Z,15.71
